createdAt,value
2018-05-26T00:04:52.881Z,53
2018-05-26T00:09:52.792Z,52
2018-05-26T00:14:52.739Z,56
2018-05-26T00:19:52.624Z,54
2018-05-26T00:24:52.816Z,54
2018-05-26T00:29:52.592Z,60
2018-05-26T00:34:52.817Z,55
2018-05-26T00:39:52.688Z,55
2018-05-26T00:44:52.886Z,56
2018-05-26T00:49:52.778Z,56
2018-05-26T00:54:52.667Z,61
2018-05-26T00:59:52.837Z,61
2018-05-26T01:04:52.799Z,54
2018-05-26T01:09:52.541Z,64
2018-05-26T01:14:52.717Z,64
2018-05-26T01:19:52.995Z,58
2018-05-26T01:24:52.511Z,59
2018-05-26T01:29:52.646Z,64
2018-05-26T01:34:52.742Z,61
2018-05-26T01:39:52.655Z,56
2018-05-26T01:44:52.545Z,59
2018-05-26T01:49:52.627Z,61
2018-05-26T01:54:52.472Z,61
2018-05-26T01:59:52.864Z,61
2018-05-26T02:04:52.676Z,64
2018-05-26T02:09:52.595Z,62
2018-05-26T02:14:52.552Z,62
2018-05-26T02:19:52.650Z,62
2018-05-26T02:24:52.695Z,68
2018-05-26T02:29:52.728Z,68
2018-05-26T02:34:52.496Z,65
2018-05-26T02:39:52.503Z,71
2018-05-26T02:44:52.410Z,66
2018-05-26T02:49:52.750Z,69
2018-05-26T02:54:52.439Z,67
2018-05-26T02:59:52.523Z,72
2018-05-26T03:04:52.794Z,61
2018-05-26T03:09:52.482Z,64
2018-05-26T03:14:52.326Z,86
2018-05-26T03:19:52.597Z,66
2018-05-26T03:24:52.415Z,64
2018-05-26T03:29:52.644Z,65
2018-05-26T03:34:52.575Z,65
2018-05-26T03:39:52.493Z,65
2018-05-26T03:44:52.290Z,65
2018-05-26T03:49:52.478Z,65
2018-05-26T03:54:52.358Z,65
2018-05-26T03:59:52.863Z,64
2018-05-26T04:04:52.448Z,64
2018-05-26T04:09:52.567Z,64
2018-05-26T04:14:52.525Z,69
2018-05-26T04:19:52.399Z,65
2018-05-26T04:24:52.262Z,72
2018-05-26T04:29:52.538Z,63
2018-05-26T04:34:52.310Z,70
2018-05-26T04:39:52.439Z,62
2018-05-26T04:44:52.335Z,62
2018-05-26T04:49:52.258Z,62
2018-05-26T04:54:52.460Z,58
2018-05-26T04:59:52.282Z,58
2018-05-26T05:04:52.478Z,61
2018-05-26T05:09:52.220Z,61
2018-05-26T05:14:52.522Z,59
2018-05-26T05:19:52.564Z,61
2018-05-26T05:24:52.610Z,61
2018-05-26T05:29:52.232Z,59
2018-05-26T05:34:52.199Z,59
2018-05-26T05:39:52.364Z,55
2018-05-26T05:44:52.314Z,61
2018-05-26T05:49:52.308Z,58
2018-05-26T05:54:52.056Z,54
2018-05-26T05:59:52.517Z,56
2018-05-26T06:04:52.524Z,60
2018-05-26T06:09:52.177Z,55
2018-05-26T06:14:52.361Z,53
2018-05-26T06:19:52.090Z,53
2018-05-26T06:24:52.524Z,53
2018-05-26T06:29:52.027Z,53
2018-05-26T06:34:52.218Z,56
2018-05-26T06:39:52.562Z,56
2018-05-26T06:44:52.327Z,52
2018-05-26T06:49:52.268Z,52
2018-05-26T06:54:52.159Z,52
2018-05-26T06:59:52.225Z,52
2018-05-26T07:04:52.064Z,52
2018-05-26T07:09:52.574Z,53
2018-05-26T07:14:52.151Z,53
2018-05-26T07:19:51.961Z,51
2018-05-26T07:24:52.552Z,47
2018-05-26T07:29:52.206Z,49
2018-05-26T07:34:52.001Z,45
2018-05-26T07:39:51.933Z,46
2018-05-26T07:44:52.090Z,52
2018-05-26T07:49:52.011Z,52
2018-05-26T07:54:52.208Z,44
2018-05-26T07:59:51.940Z,44
2018-05-26T08:04:52.232Z,43
2018-05-26T08:09:51.961Z,47
2018-05-26T08:14:52.405Z,44
2018-05-26T08:19:52.009Z,43
2018-05-26T08:24:52.179Z,33
2018-05-26T08:29:52.300Z,38
2018-05-26T08:34:51.980Z,40
2018-05-26T08:39:51.863Z,32
2018-05-26T08:44:51.870Z,31
2018-05-26T08:49:51.852Z,36
2018-05-26T08:54:52.194Z,36
2018-05-26T08:59:51.901Z,35
2018-05-26T09:04:52.022Z,29
2018-05-26T09:09:52.261Z,25
2018-05-26T09:14:51.980Z,25
2018-05-26T09:19:52.287Z,26
2018-05-26T09:24:52.046Z,26
2018-05-26T09:29:52.073Z,26
2018-05-26T09:34:51.950Z,32
2018-05-26T09:39:51.992Z,30
2018-05-26T09:44:51.870Z,24
2018-05-26T09:49:51.889Z,24
2018-05-26T09:54:51.801Z,26
2018-05-26T09:59:51.724Z,26
2018-05-26T10:04:51.856Z,23
2018-05-26T10:09:51.886Z,23
2018-05-26T10:14:51.994Z,28
2018-05-26T10:19:52.020Z,22
2018-05-26T10:24:52.180Z,21
2018-05-26T10:29:51.865Z,21
2018-05-26T10:34:51.872Z,27
2018-05-26T10:39:52.155Z,26
2018-05-26T10:44:51.848Z,24
2018-05-26T10:49:51.689Z,24
2018-05-26T10:54:52.136Z,24
2018-05-26T10:59:51.794Z,25
2018-05-26T11:04:51.735Z,21
2018-05-26T11:09:51.877Z,24
2018-05-26T11:14:51.777Z,21
2018-05-26T11:19:51.638Z,24
2018-05-26T11:24:51.655Z,21
2018-05-26T11:29:51.889Z,21
2018-05-26T11:34:51.589Z,24
2018-05-26T11:39:52.030Z,21
2018-05-26T11:44:51.933Z,28
2018-05-26T11:49:51.562Z,28
2018-05-26T11:54:51.621Z,22
2018-05-26T11:59:51.775Z,21
2018-05-26T12:04:51.647Z,27
2018-05-26T12:09:51.827Z,26
2018-05-26T12:14:51.704Z,22
2018-05-26T12:19:51.533Z,26
2018-05-26T12:24:51.495Z,26
2018-05-26T12:29:51.684Z,24
2018-05-26T12:34:51.590Z,18
2018-05-26T12:39:51.726Z,18
2018-05-26T12:44:51.551Z,20
2018-05-26T12:49:51.759Z,20
2018-05-26T12:54:51.625Z,20
2018-05-26T12:59:51.839Z,16
2018-05-26T13:04:51.633Z,16
2018-05-26T13:09:51.627Z,23
2018-05-26T13:14:51.642Z,50
2018-05-26T13:19:51.735Z,18
2018-05-26T13:24:51.436Z,18
2018-05-26T13:29:51.877Z,20
2018-05-26T13:34:51.504Z,20
2018-05-26T13:39:51.402Z,19
2018-05-26T13:44:51.607Z,19
2018-05-26T13:49:51.495Z,19
2018-05-26T13:54:51.454Z,14
2018-05-26T13:59:51.650Z,14
2018-05-26T14:04:51.483Z,19
2018-05-26T14:09:51.604Z,17
2018-05-26T14:14:51.396Z,17
2018-05-26T14:19:51.648Z,17
2018-05-26T14:24:51.497Z,20
2018-05-26T14:29:51.364Z,15
2018-05-26T14:34:51.506Z,11
2018-05-26T14:39:51.382Z,11
2018-05-26T14:44:51.368Z,11
2018-05-26T14:49:51.596Z,11
2018-05-26T14:54:51.613Z,11
2018-05-26T14:59:51.289Z,15
2018-05-26T15:04:51.607Z,12
2018-05-26T15:09:51.588Z,15
2018-05-26T15:14:51.482Z,10
2018-05-26T15:19:51.517Z,14
2018-05-26T15:24:51.310Z,13
2018-05-26T15:29:51.528Z,14
2018-05-26T15:34:51.355Z,13
2018-05-26T15:39:51.351Z,17
2018-05-26T15:44:51.511Z,17
2018-05-26T15:49:51.385Z,17
2018-05-26T15:54:51.448Z,13
2018-05-26T15:59:51.502Z,13
2018-05-26T16:04:51.328Z,13
2018-05-26T16:09:51.683Z,18
2018-05-26T16:14:51.455Z,9
2018-05-26T16:19:51.240Z,20
2018-05-26T16:24:51.190Z,16
2018-05-26T16:29:51.346Z,16
2018-05-26T16:34:51.140Z,14
2018-05-26T16:39:51.427Z,14
2018-05-26T16:44:51.501Z,16
2018-05-26T16:49:51.318Z,16
2018-05-26T16:54:51.225Z,16
2018-05-26T16:59:51.323Z,16
2018-05-26T17:04:51.183Z,16
2018-05-26T17:09:51.464Z,16
2018-05-26T17:14:51.229Z,19
2018-05-26T17:19:51.401Z,19
2018-05-26T17:24:51.222Z,14
2018-05-26T17:29:51.019Z,24
2018-05-26T17:34:51.244Z,24
2018-05-26T17:39:51.106Z,48
2018-05-26T17:44:51.348Z,22
2018-05-26T17:49:51.165Z,22
2018-05-26T17:54:51.065Z,22
2018-05-26T17:59:50.990Z,22
2018-05-26T18:04:51.198Z,22
2018-05-26T18:09:51.124Z,22
2018-05-26T18:14:51.317Z,22
2018-05-26T18:19:51.320Z,21
2018-05-26T18:24:51.344Z,23
2018-05-26T18:29:51.183Z,23
2018-05-26T18:34:50.983Z,29
2018-05-26T18:39:50.930Z,24
2018-05-26T18:44:51.283Z,17
2018-05-26T18:49:51.077Z,21
2018-05-26T18:54:50.924Z,26
2018-05-26T18:59:51.107Z,26
2018-05-26T19:04:50.998Z,23
2018-05-26T19:09:51.234Z,20
2018-05-26T19:14:51.025Z,26
2018-05-26T19:19:50.967Z,22
2018-05-26T19:24:50.863Z,27
2018-05-26T19:29:51.177Z,25
2018-05-26T19:34:50.882Z,25
2018-05-26T19:39:51.098Z,26
2018-05-26T19:44:50.921Z,31
2018-05-26T19:49:51.108Z,31
2018-05-26T19:54:50.930Z,23
2018-05-26T19:59:51.214Z,24
2018-05-26T20:04:50.893Z,29
2018-05-26T20:09:51.241Z,23
2018-05-26T20:14:50.961Z,29
2018-05-26T20:19:51.153Z,28
2018-05-26T20:24:50.998Z,22
2018-05-26T20:29:50.969Z,60
2018-05-26T20:34:51.182Z,32
2018-05-26T20:39:50.796Z,31
2018-05-26T20:44:51.028Z,35
2018-05-26T20:49:50.902Z,29
2018-05-26T20:54:50.850Z,28
2018-05-26T20:59:51.047Z,28
2018-05-26T21:04:50.895Z,30
2018-05-26T21:09:50.787Z,40
2018-05-26T21:14:51.027Z,28
2018-05-26T21:19:50.879Z,32
2018-05-26T21:24:50.852Z,34
2018-05-26T21:29:50.850Z,34
2018-05-26T21:34:50.891Z,34
2018-05-26T21:39:50.616Z,29
2018-05-26T21:44:50.676Z,30
2018-05-26T21:49:51.038Z,30
2018-05-26T21:54:50.932Z,35
2018-05-26T21:59:50.787Z,32
2018-05-26T22:04:50.678Z,32
2018-05-26T22:09:50.971Z,26
2018-05-26T22:14:50.778Z,31
2018-05-26T22:19:50.727Z,32
2018-05-26T22:24:50.784Z,29
2018-05-26T22:29:50.933Z,30
2018-05-26T22:34:50.976Z,25
2018-05-26T22:39:50.733Z,25
2018-05-26T22:44:50.954Z,20
2018-05-26T22:49:50.751Z,23
2018-05-26T22:54:50.670Z,23
2018-05-26T22:59:50.907Z,56
2018-05-26T23:04:50.808Z,17
2018-05-26T23:09:50.661Z,31
2018-05-26T23:14:50.594Z,25
2018-05-26T23:19:50.940Z,27
2018-05-26T23:24:50.771Z,22
2018-05-26T23:29:50.490Z,22
2018-05-26T23:34:50.833Z,21
2018-05-26T23:39:50.671Z,22
2018-05-26T23:44:50.518Z,21
2018-05-26T23:49:50.797Z,21
2018-05-26T23:54:50.731Z,26
2018-05-26T23:59:50.499Z,19
